createdAt,value
2022-11-29T00:02:24.481Z,3.05
2022-11-29T00:04:57.428Z,3.28
2022-11-29T00:07:31.626Z,2.92
2022-11-29T00:10:04.988Z,3.10
2022-11-29T00:12:37.769Z,3.10
2022-11-29T00:15:10.756Z,3.45
2022-11-29T00:17:43.998Z,3.17
2022-11-29T00:20:17.007Z,3.65
2022-11-29T00:22:51.279Z,3.38
2022-11-29T00:25:24.286Z,3.05
2022-11-29T00:27:57.081Z,3.15
2022-11-29T00:30:30.058Z,2.97
2022-11-29T00:33:03.769Z,3.20
2022-11-29T00:35:36.631Z,3.05
2022-11-29T00:38:10.825Z,3.20
2022-11-29T00:40:43.780Z,3.03
2022-11-29T00:43:16.564Z,2.90
2022-11-29T00:45:49.480Z,3.22
2022-11-29T00:48:22.327Z,3.10
2022-11-29T00:50:55.201Z,3.10
2022-11-29T00:53:30.033Z,3.42
2022-11-29T00:56:04.623Z,3.30
2022-11-29T00:58:37.808Z,3.53
2022-11-29T01:01:11.798Z,4.00
2022-11-29T01:03:44.700Z,3.40
2022-11-29T01:06:19.304Z,3.28
2022-11-29T01:08:54.054Z,3.35
2022-11-29T01:11:28.797Z,3.05
2022-11-29T01:14:02.995Z,3.17
2022-11-29T01:16:36.035Z,2.95
2022-11-29T01:19:08.916Z,2.88
2022-11-29T01:21:42.341Z,2.80
2022-11-29T01:24:16.555Z,2.85
2022-11-29T01:26:49.424Z,2.90
2022-11-29T01:32:12.695Z,2.70
2022-11-29T01:34:45.642Z,2.78
2022-11-29T01:37:18.683Z,3.20
2022-11-29T01:39:52.877Z,3.10
2022-11-29T01:42:25.764Z,3.20
2022-11-29T01:45:08.954Z,2.75
2022-11-29T01:47:47.366Z,3.03
2022-11-29T01:50:20.904Z,3.10
2022-11-29T01:52:53.895Z,3.20
2022-11-29T01:55:28.156Z,2.85
2022-11-29T02:00:52.485Z,3.13
2022-11-29T02:03:25.455Z,3.30
2022-11-29T02:05:58.249Z,3.42
2022-11-29T02:08:37.574Z,3.83
2022-11-29T02:11:43.225Z,3.47
2022-11-29T02:14:34.641Z,3.67
2022-11-29T02:17:15.352Z,3.95
2022-11-29T02:20:12.139Z,3.72
2022-11-29T02:22:51.786Z,3.40
2022-11-29T02:25:41.540Z,3.83
2022-11-29T02:28:45.206Z,3.83
2022-11-29T02:31:54.930Z,4.03
2022-11-29T02:34:54.567Z,4.00
2022-11-29T02:37:46.725Z,3.85
2022-11-29T02:40:42.494Z,3.70
2022-11-29T02:43:33.037Z,3.53
2022-11-29T02:46:18.661Z,3.70
2022-11-29T02:48:59.221Z,3.28
2022-11-29T02:51:42.312Z,3.20
2022-11-29T02:54:20.539Z,3.65
2022-11-29T02:56:57.965Z,3.40
2022-11-29T02:59:46.803Z,3.95
2022-11-29T03:02:27.817Z,3.97
2022-11-29T03:05:10.780Z,3.70
2022-11-29T03:07:56.850Z,3.45
2022-11-29T03:10:40.926Z,3.75
2022-11-29T03:13:24.957Z,3.80
2022-11-29T03:16:05.204Z,3.75
2022-11-29T03:18:55.974Z,3.85
2022-11-29T03:21:40.783Z,3.58
2022-11-29T03:24:22.330Z,3.42
2022-11-29T03:27:02.842Z,3.67
2022-11-29T03:29:41.268Z,3.30
2022-11-29T03:32:21.474Z,3.58
2022-11-29T03:35:00.843Z,3.40
2022-11-29T03:37:43.138Z,3.45
2022-11-29T03:40:20.930Z,3.05
2022-11-29T03:42:59.389Z,3.33
2022-11-29T03:45:39.804Z,3.10
2022-11-29T03:48:18.634Z,3.03
2022-11-29T03:50:57.430Z,3.20
2022-11-29T03:53:35.120Z,3.55
2022-11-29T03:59:25.504Z,2.85
2022-11-29T04:02:34.883Z,2.75
2022-11-29T04:05:30.472Z,2.92
2022-11-29T04:08:41.078Z,2.78
2022-11-29T04:11:55.811Z,2.78
2022-11-29T04:14:38.315Z,3.03
2022-11-29T04:17:42.588Z,2.22
2022-11-29T04:20:56.926Z,2.58
2022-11-29T04:24:08.262Z,2.45
2022-11-29T04:27:10.739Z,3.08
2022-11-29T04:30:07.108Z,2.42
2022-11-29T04:33:05.770Z,2.80
2022-11-29T04:36:07.905Z,2.70
2022-11-29T04:41:59.209Z,2.78
2022-11-29T04:44:45.685Z,2.78
2022-11-29T04:47:42.141Z,2.80
2022-11-29T04:50:25.260Z,2.90
2022-11-29T04:53:49.199Z,2.90
2022-11-29T04:56:32.229Z,2.33
2022-11-29T04:59:14.491Z,2.67
2022-11-29T05:01:59.815Z,2.90
2022-11-29T05:04:47.727Z,2.60
2022-11-29T05:07:30.449Z,2.65
2022-11-29T05:10:25.522Z,2.63
2022-11-29T05:13:07.225Z,2.50
2022-11-29T05:15:51.531Z,2.40
2022-11-29T05:18:36.016Z,2.83
2022-11-29T05:21:19.996Z,2.65
2022-11-29T05:24:04.406Z,2.63
2022-11-29T05:26:44.880Z,2.67
2022-11-29T05:29:22.995Z,2.63
2022-11-29T05:32:04.734Z,2.70
2022-11-29T05:34:53.327Z,2.50
2022-11-29T05:37:39.140Z,2.83
2022-11-29T05:40:47.381Z,2.67
2022-11-29T05:43:33.460Z,2.55
2022-11-29T05:46:13.195Z,2.78
2022-11-29T05:48:54.237Z,2.45
2022-11-29T05:51:41.154Z,2.50
2022-11-29T05:54:26.869Z,2.55
2022-11-29T05:57:09.707Z,2.38
2022-11-29T05:59:44.751Z,2.60
2022-11-29T06:02:29.183Z,2.45
2022-11-29T06:05:11.590Z,2.40
2022-11-29T06:07:55.060Z,2.20
2022-11-29T06:10:32.973Z,2.42
2022-11-29T06:13:17.434Z,2.13
2022-11-29T06:16:17.295Z,2.40
2022-11-29T06:19:12.924Z,2.50
2022-11-29T06:21:52.409Z,2.65
2022-11-29T06:24:47.146Z,2.20
2022-11-29T06:27:39.956Z,2.55
2022-11-29T06:30:15.441Z,2.40
2022-11-29T06:32:55.962Z,2.20
2022-11-29T06:35:40.931Z,2.45
2022-11-29T06:38:19.383Z,2.40
2022-11-29T06:40:56.052Z,2.30
2022-11-29T06:43:35.130Z,2.60
2022-11-29T06:46:20.026Z,2.28
2022-11-29T06:49:01.894Z,2.28
2022-11-29T06:51:45.371Z,1.90
2022-11-29T06:54:33.630Z,2.30
2022-11-29T06:57:14.758Z,2.17
2022-11-29T07:00:00.094Z,2.15
2022-11-29T07:02:55.386Z,2.10
2022-11-29T07:05:30.031Z,2.20
2022-11-29T07:08:05.231Z,2.60
2022-11-29T07:10:40.787Z,2.70
2022-11-29T07:13:14.810Z,2.45
2022-11-29T07:16:00.729Z,2.40
2022-11-29T07:18:42.920Z,2.65
2022-11-29T07:21:27.929Z,2.72
2022-11-29T07:24:10.092Z,3.28
2022-11-29T07:26:55.141Z,2.85
2022-11-29T07:29:41.248Z,2.63
2022-11-29T07:32:22.147Z,3.00
2022-11-29T07:35:03.065Z,2.97
2022-11-29T07:37:42.253Z,2.63
2022-11-29T07:40:19.757Z,2.88
2022-11-29T07:43:05.962Z,2.55
2022-11-29T07:45:40.429Z,3.70
2022-11-29T07:48:14.934Z,4.18
2022-11-29T07:50:48.447Z,3.17
2022-11-29T07:53:23.205Z,3.13
2022-11-29T07:55:56.154Z,2.78
2022-11-29T07:58:29.318Z,2.80
2022-11-29T08:01:02.235Z,2.53
2022-11-29T08:03:36.492Z,2.97
2022-11-29T08:06:09.558Z,2.88
2022-11-29T08:08:44.136Z,2.83
2022-11-29T08:11:17.353Z,3.00
2022-11-29T08:13:50.177Z,3.00
2022-11-29T08:16:23.015Z,3.03
2022-11-29T08:18:57.520Z,2.90
2022-11-29T08:21:30.447Z,2.95
2022-11-29T08:24:03.244Z,3.20
2022-11-29T08:26:36.196Z,3.50
2022-11-29T08:29:09.217Z,2.90
2022-11-29T08:31:42.428Z,2.85
2022-11-29T08:34:16.610Z,3.38
2022-11-29T08:36:49.944Z,3.40
2022-11-29T08:39:22.885Z,3.63
2022-11-29T08:41:55.736Z,3.63
2022-11-29T08:44:28.584Z,3.70
2022-11-29T08:47:19.074Z,3.33
2022-11-29T08:50:07.086Z,3.40
2022-11-29T08:53:00.148Z,3.85
2022-11-29T08:55:36.234Z,3.38
2022-11-29T08:58:11.211Z,3.55
2022-11-29T09:00:46.937Z,3.70
2022-11-29T09:03:37.894Z,3.90
2022-11-29T09:06:14.582Z,3.90
2022-11-29T09:08:47.481Z,3.70
2022-11-29T09:11:22.620Z,4.18
2022-11-29T09:13:57.660Z,4.20
2022-11-29T09:16:33.855Z,3.22
2022-11-29T09:19:07.948Z,3.70
2022-11-29T09:21:42.282Z,3.95
2022-11-29T09:24:16.077Z,3.50
2022-11-29T09:26:49.203Z,3.15
2022-11-29T09:29:22.119Z,3.47
2022-11-29T09:31:54.957Z,3.80
2022-11-29T09:34:27.884Z,3.65
2022-11-29T09:37:02.059Z,3.80
2022-11-29T09:39:34.959Z,3.25
2022-11-29T09:42:24.342Z,3.80
2022-11-29T09:45:05.795Z,3.10
2022-11-29T09:47:58.634Z,3.13
2022-11-29T09:50:35.071Z,3.13
2022-11-29T09:53:27.212Z,3.08
2022-11-29T09:56:11.696Z,3.05
2022-11-29T09:58:51.522Z,3.25
2022-11-29T10:01:29.013Z,3.30
2022-11-29T10:04:06.081Z,2.90
2022-11-29T10:06:44.190Z,3.63
2022-11-29T10:09:23.912Z,2.85
2022-11-29T10:12:07.956Z,3.50
2022-11-29T10:14:47.245Z,3.03
2022-11-29T10:17:35.773Z,3.63
2022-11-29T10:20:15.618Z,3.50
2022-11-29T10:22:54.509Z,3.20
2022-11-29T10:25:34.878Z,3.45
2022-11-29T10:28:13.835Z,3.08
2022-11-29T10:30:47.614Z,3.05
2022-11-29T10:33:22.551Z,2.97
2022-11-29T10:35:58.320Z,3.28
2022-11-29T10:38:31.934Z,3.13
2022-11-29T10:41:11.997Z,2.92
2022-11-29T10:43:44.991Z,3.13
2022-11-29T10:46:28.264Z,2.80
2022-11-29T10:49:03.863Z,2.83
2022-11-29T10:51:36.743Z,2.30
2022-11-29T10:54:26.306Z,2.60
2022-11-29T10:57:02.768Z,2.63
2022-11-29T10:59:35.954Z,2.50
2022-11-29T11:02:19.777Z,2.47
2022-11-29T11:04:52.728Z,2.00
2022-11-29T11:07:30.192Z,2.28
2022-11-29T11:10:06.082Z,2.00
2022-11-29T11:12:40.369Z,1.70
2022-11-29T11:15:29.298Z,2.28
2022-11-29T11:18:05.012Z,1.65
2022-11-29T11:20:44.372Z,1.80
2022-11-29T11:23:26.084Z,1.70
2022-11-29T11:26:01.956Z,2.00
2022-11-29T11:28:41.373Z,1.60
2022-11-29T11:31:15.242Z,1.80
2022-11-29T11:33:48.777Z,1.17
2022-11-29T11:36:24.731Z,1.65
2022-11-29T11:38:59.855Z,1.10
2022-11-29T11:41:52.296Z,1.48
2022-11-29T11:44:53.626Z,1.15
2022-11-29T11:47:28.628Z,1.17
2022-11-29T11:50:09.155Z,1.25
2022-11-29T11:52:50.151Z,1.48
2022-11-29T11:55:31.027Z,1.10
2022-11-29T11:58:10.592Z,1.08
2022-11-29T12:01:05.665Z,1.42
2022-11-29T12:03:51.065Z,1.48
2022-11-29T12:06:42.069Z,1.40
2022-11-29T12:09:27.303Z,1.38
2022-11-29T12:12:11.838Z,1.60
2022-11-29T12:14:55.605Z,1.40
2022-11-29T12:17:37.022Z,1.60
2022-11-29T12:20:21.357Z,1.73
2022-11-29T12:23:14.743Z,1.75
2022-11-29T12:25:53.148Z,1.33
2022-11-29T12:28:29.889Z,1.40
2022-11-29T12:31:17.891Z,1.70
2022-11-29T12:34:04.123Z,1.63
2022-11-29T12:36:47.703Z,1.52
2022-11-29T12:39:37.871Z,1.67
2022-11-29T12:42:17.779Z,1.63
2022-11-29T12:45:01.275Z,1.58
2022-11-29T12:47:51.711Z,1.83
2022-11-29T12:50:37.139Z,1.75
2022-11-29T12:53:27.281Z,1.45
2022-11-29T12:56:11.054Z,1.63
2022-11-29T12:58:59.959Z,1.50
2022-11-29T13:01:44.849Z,1.38
2022-11-29T13:04:24.917Z,1.80
2022-11-29T13:07:07.767Z,1.63
2022-11-29T13:10:14.973Z,1.30
2022-11-29T13:12:55.006Z,1.30
2022-11-29T13:15:40.565Z,1.73
2022-11-29T13:18:19.799Z,1.80
2022-11-29T13:20:58.293Z,1.77
2022-11-29T13:24:07.380Z,1.55
2022-11-29T13:26:35.167Z,1.45
2022-11-29T13:29:13.975Z,1.58
2022-11-29T13:31:48.241Z,1.40
2022-11-29T13:34:25.841Z,1.23
2022-11-29T13:37:08.600Z,1.20
2022-11-29T13:39:58.105Z,1.20
2022-11-29T13:42:42.471Z,1.42
2022-11-29T13:45:22.788Z,1.33
2022-11-29T13:47:57.619Z,1.02
2022-11-29T13:50:39.031Z,1.35
2022-11-29T13:53:16.321Z,1.08
2022-11-29T13:56:00.324Z,0.93
2022-11-29T13:58:41.119Z,1.40
2022-11-29T14:01:15.473Z,1.02
2022-11-29T14:04:05.699Z,1.30
2022-11-29T14:06:40.095Z,1.48
2022-11-29T14:09:23.671Z,1.10
2022-11-29T14:12:03.871Z,1.08
2022-11-29T14:14:49.096Z,1.40
2022-11-29T14:17:47.496Z,1.15
2022-11-29T14:20:45.172Z,0.93
2022-11-29T14:23:32.166Z,1.10
2022-11-29T14:26:35.117Z,1.23
2022-11-29T14:29:54.948Z,1.40
2022-11-29T14:32:35.995Z,1.27
2022-11-29T14:35:17.437Z,0.93
2022-11-29T14:37:57.515Z,1.50
2022-11-29T14:40:35.901Z,1.20
2022-11-29T14:43:21.852Z,1.10
2022-11-29T14:46:11.293Z,1.00
2022-11-29T14:48:57.752Z,0.85
2022-11-29T14:51:32.960Z,1.20
2022-11-29T14:54:16.039Z,1.02
2022-11-29T14:56:48.937Z,1.23
2022-11-29T14:59:55.654Z,1.20
2022-11-29T15:02:35.263Z,1.00
2022-11-29T15:05:16.091Z,0.98
2022-11-29T15:07:53.878Z,1.10
2022-11-29T15:10:30.922Z,0.90
2022-11-29T15:13:05.739Z,1.05
2022-11-29T15:15:52.805Z,1.00
2022-11-29T15:18:55.172Z,1.00
2022-11-29T15:21:36.861Z,0.90
2022-11-29T15:24:12.961Z,1.05
2022-11-29T15:26:57.482Z,0.98
2022-11-29T15:29:32.241Z,0.90
2022-11-29T15:32:08.037Z,0.90
2022-11-29T15:34:45.246Z,1.00
2022-11-29T15:37:24.276Z,1.20
2022-11-29T15:40:04.656Z,1.30
2022-11-29T15:42:43.695Z,1.50
2022-11-29T15:45:28.976Z,0.95
2022-11-29T15:48:30.101Z,1.30
2022-11-29T15:51:12.436Z,0.80
2022-11-29T15:53:50.385Z,1.20
2022-11-29T15:56:31.464Z,1.10
2022-11-29T15:59:10.250Z,1.20
2022-11-29T16:01:47.345Z,1.08
2022-11-29T16:04:22.976Z,1.02
2022-11-29T16:06:58.427Z,1.00
2022-11-29T16:09:35.838Z,0.85
2022-11-29T16:12:14.774Z,1.27
2022-11-29T16:14:53.792Z,1.00
2022-11-29T16:17:28.117Z,0.90
2022-11-29T16:20:24.932Z,1.00
2022-11-29T16:23:12.636Z,1.02
2022-11-29T16:25:53.689Z,1.10
2022-11-29T16:28:30.871Z,1.17
2022-11-29T16:31:05.007Z,1.20
2022-11-29T16:33:39.448Z,1.42
2022-11-29T16:36:16.571Z,1.48
2022-11-29T16:38:53.913Z,1.60
2022-11-29T16:41:33.448Z,1.70
2022-11-29T16:44:30.182Z,1.80
2022-11-29T16:47:13.685Z,1.45
2022-11-29T16:49:46.967Z,1.42
2022-11-29T16:52:27.763Z,1.20
2022-11-29T16:55:02.309Z,1.10
2022-11-29T16:57:35.640Z,0.80
2022-11-29T17:00:22.696Z,1.00
2022-11-29T17:02:55.627Z,1.17
2022-11-29T17:05:28.548Z,1.05
2022-11-29T17:08:01.817Z,1.10
2022-11-29T17:10:36.082Z,1.25
2022-11-29T17:13:10.610Z,1.20
2022-11-29T17:15:43.474Z,1.30
2022-11-29T17:18:16.590Z,1.20
2022-11-29T17:20:49.738Z,1.35
2022-11-29T17:23:22.794Z,1.27
2022-11-29T17:26:00.976Z,1.52
2022-11-29T17:28:34.041Z,1.83
2022-11-29T17:31:09.951Z,1.65
2022-11-29T17:33:43.400Z,2.47
2022-11-29T17:36:18.324Z,2.03
2022-11-29T17:38:51.344Z,3.90
2022-11-29T17:41:28.357Z,4.50
2022-11-29T17:44:01.869Z,3.10
2022-11-29T17:46:36.429Z,2.47
2022-11-29T17:49:10.651Z,2.67
2022-11-29T17:51:51.761Z,2.58
2022-11-29T17:54:25.984Z,2.10
2022-11-29T17:57:00.863Z,2.25
2022-11-29T17:59:33.865Z,1.67
2022-11-29T18:02:07.859Z,1.88
2022-11-29T18:04:43.053Z,1.83
2022-11-29T18:07:17.316Z,2.00
2022-11-29T18:09:51.078Z,1.60
2022-11-29T18:12:25.461Z,2.03
2022-11-29T18:14:58.805Z,2.08
2022-11-29T18:17:32.038Z,2.13
2022-11-29T18:20:05.553Z,2.08
2022-11-29T18:22:38.461Z,2.05
2022-11-29T18:25:37.681Z,2.17
2022-11-29T18:28:06.870Z,2.45
2022-11-29T18:30:39.955Z,2.70
2022-11-29T18:33:13.388Z,2.30
2022-11-29T18:35:46.523Z,2.83
2022-11-29T18:38:19.790Z,2.47
2022-11-29T18:40:52.999Z,3.05
2022-11-29T18:43:27.497Z,2.67
2022-11-29T18:46:00.650Z,2.60
2022-11-29T18:48:33.894Z,2.70
2022-11-29T18:51:08.727Z,2.50
2022-11-29T18:53:44.249Z,3.00
2022-11-29T18:56:19.293Z,2.75
2022-11-29T18:58:58.358Z,3.00
2022-11-29T19:01:35.627Z,2.85
2022-11-29T19:04:09.851Z,2.70
2022-11-29T19:06:43.866Z,3.40
2022-11-29T19:09:19.331Z,3.20
2022-11-29T19:11:52.308Z,3.05
2022-11-29T19:14:26.668Z,2.47
2022-11-29T19:16:59.732Z,2.83
2022-11-29T19:19:33.640Z,2.67
2022-11-29T19:22:06.859Z,2.67
2022-11-29T19:24:40.047Z,3.10
2022-11-29T19:27:13.135Z,2.92
2022-11-29T19:29:47.805Z,3.20
2022-11-29T19:32:21.222Z,3.67
2022-11-29T19:34:54.114Z,3.58
2022-11-29T19:37:27.367Z,3.45
2022-11-29T19:40:00.310Z,3.63
2022-11-29T19:42:33.472Z,3.15
2022-11-29T19:45:17.186Z,3.33
2022-11-29T19:47:51.041Z,3.65
2022-11-29T19:50:24.131Z,3.75
2022-11-29T19:52:57.113Z,3.85
2022-11-29T19:55:30.315Z,4.47
2022-11-29T19:58:03.324Z,4.10
2022-11-29T20:00:37.767Z,4.50
2022-11-29T20:03:10.810Z,4.90
2022-11-29T20:05:43.837Z,4.70
2022-11-29T20:08:21.266Z,4.20
2022-11-29T20:10:54.668Z,3.38
2022-11-29T20:13:27.829Z,3.70
2022-11-29T20:16:04.246Z,3.75
2022-11-29T20:18:39.327Z,4.05
2022-11-29T20:21:14.664Z,4.47
2022-11-29T20:23:47.789Z,4.47
2022-11-29T20:26:23.199Z,4.93
2022-11-29T20:28:57.543Z,4.32
2022-11-29T20:31:34.223Z,3.28
2022-11-29T20:34:07.643Z,3.65
2022-11-29T20:36:48.360Z,3.78
2022-11-29T20:39:33.071Z,3.80
2022-11-29T20:42:38.009Z,3.35
2022-11-29T20:45:13.863Z,2.70
2022-11-29T20:47:54.423Z,2.97
2022-11-29T20:50:29.950Z,3.35
2022-11-29T20:53:17.192Z,3.13
2022-11-29T20:55:50.652Z,3.95
2022-11-29T20:58:23.914Z,3.17
2022-11-29T21:00:57.582Z,3.55
2022-11-29T21:03:32.287Z,3.75
2022-11-29T21:06:07.176Z,3.50
2022-11-29T21:08:40.349Z,3.83
2022-11-29T21:11:14.182Z,4.10
2022-11-29T21:13:48.204Z,4.15
2022-11-29T21:16:28.622Z,4.03
2022-11-29T21:19:04.172Z,3.72
2022-11-29T21:21:44.783Z,4.07
2022-11-29T21:24:29.715Z,3.97
2022-11-29T21:27:04.472Z,4.07
2022-11-29T21:29:38.012Z,4.00
2022-11-29T21:32:22.192Z,3.88
2022-11-29T21:34:56.709Z,4.20
2022-11-29T21:37:32.171Z,4.53
2022-11-29T21:40:06.209Z,4.15
2022-11-29T21:42:39.476Z,4.18
2022-11-29T21:45:15.712Z,4.28
2022-11-29T21:47:49.231Z,4.13
2022-11-29T21:50:23.750Z,4.38
2022-11-29T21:52:56.734Z,4.40
2022-11-29T21:55:32.143Z,4.32
2022-11-29T21:58:05.653Z,4.10
2022-11-29T22:00:38.772Z,4.22
2022-11-29T22:03:11.790Z,4.20
2022-11-29T22:05:46.231Z,4.70
2022-11-29T22:08:19.557Z,4.35
2022-11-29T22:11:01.641Z,4.20
2022-11-29T22:13:34.721Z,3.97
2022-11-29T22:16:09.946Z,4.05
2022-11-29T22:18:43.232Z,4.20
2022-11-29T22:21:17.677Z,4.47
2022-11-29T22:23:50.841Z,4.32
2022-11-29T22:26:23.999Z,4.70
2022-11-29T22:28:57.110Z,4.38
2022-11-29T22:31:30.300Z,4.45
2022-11-29T22:34:03.314Z,4.50
2022-11-29T22:36:38.692Z,4.63
2022-11-29T22:39:12.130Z,4.15
2022-11-29T22:41:49.227Z,4.10
2022-11-29T22:44:25.648Z,4.15
2022-11-29T22:46:58.915Z,4.38
2022-11-29T22:49:33.296Z,4.82
2022-11-29T22:52:07.824Z,4.53
2022-11-29T22:54:40.756Z,4.82
2022-11-29T22:57:13.704Z,4.30
2022-11-29T22:59:46.982Z,4.72
2022-11-29T23:02:20.280Z,4.53
2022-11-29T23:04:53.340Z,5.13
2022-11-29T23:07:28.391Z,4.13
2022-11-29T23:10:01.429Z,4.70
2022-11-29T23:12:34.360Z,4.45
2022-11-29T23:15:08.074Z,4.43
2022-11-29T23:17:41.260Z,4.65
2022-11-29T23:20:15.013Z,4.18
2022-11-29T23:22:49.779Z,4.82
2022-11-29T23:25:22.758Z,4.68
2022-11-29T23:27:55.691Z,4.78
2022-11-29T23:30:28.791Z,4.53
2022-11-29T23:33:01.951Z,4.20
2022-11-29T23:35:35.186Z,4.10
2022-11-29T23:38:09.913Z,4.15
2022-11-29T23:40:44.807Z,4.60
2022-11-29T23:43:17.748Z,3.95
2022-11-29T23:45:51.108Z,4.38
2022-11-29T23:48:24.508Z,4.10
2022-11-29T23:50:57.466Z,3.67
2022-11-29T23:53:31.903Z,4.00
2022-11-29T23:56:06.989Z,3.90
2022-11-29T23:58:40.522Z,3.80
